sensor_id;sensor_type;location;lat;lon;timestamp;temperature;humidity
59847;DHT22;45728;48.788;2.302;2022-09-09T00:04:05;16.70;99.90
59847;DHT22;45728;48.788;2.302;2022-09-09T00:06:43;16.70;99.90
59847;DHT22;45728;48.788;2.302;2022-09-09T00:09:14;16.70;99.90
59847;DHT22;45728;48.788;2.302;2022-09-09T00:11:43;16.60;99.90
59847;DHT22;45728;48.788;2.302;2022-09-09T00:14:18;16.60;99.90
59847;DHT22;45728;48.788;2.302;2022-09-09T00:16:50;16.60;99.90
59847;DHT22;45728;48.788;2.302;2022-09-09T00:21:48;16.60;99.90
59847;DHT22;45728;48.788;2.302;2022-09-09T00:24:41;16.50;99.90
59847;DHT22;45728;48.788;2.302;2022-09-09T00:27:06;16.50;99.90
59847;DHT22;45728;48.788;2.302;2022-09-09T00:32:00;16.40;99.90
59847;DHT22;45728;48.788;2.302;2022-09-09T00:34:30;16.40;99.90
59847;DHT22;45728;48.788;2.302;2022-09-09T00:36:56;16.30;99.90
59847;DHT22;45728;48.788;2.302;2022-09-09T00:39:39;16.40;99.90
59847;DHT22;45728;48.788;2.302;2022-09-09T00:42:13;16.40;99.90
59847;DHT22;45728;48.788;2.302;2022-09-09T00:44:44;16.40;99.90
59847;DHT22;45728;48.788;2.302;2022-09-09T00:47:23;16.40;99.90
59847;DHT22;45728;48.788;2.302;2022-09-09T00:52:39;16.40;99.90
59847;DHT22;45728;48.788;2.302;2022-09-09T00:55:19;16.40;99.90
59847;DHT22;45728;48.788;2.302;2022-09-09T00:57:47;16.40;99.90
59847;DHT22;45728;48.788;2.302;2022-09-09T01:00:23;16.30;99.90
59847;DHT22;45728;48.788;2.302;2022-09-09T01:08:01;16.40;99.90
59847;DHT22;45728;48.788;2.302;2022-09-09T01:10:46;16.30;99.90
59847;DHT22;45728;48.788;2.302;2022-09-09T01:13:26;16.30;99.90
59847;DHT22;45728;48.788;2.302;2022-09-09T01:15:57;16.30;99.90
59847;DHT22;45728;48.788;2.302;2022-09-09T01:18:39;16.30;99.90
59847;DHT22;45728;48.788;2.302;2022-09-09T01:28:45;16.20;99.90
59847;DHT22;45728;48.788;2.302;2022-09-09T01:31:14;16.20;99.90
59847;DHT22;45728;48.788;2.302;2022-09-09T01:33:40;16.20;99.90
59847;DHT22;45728;48.788;2.302;2022-09-09T01:36:08;16.20;99.90
59847;DHT22;45728;48.788;2.302;2022-09-09T01:38:35;16.20;99.90
59847;DHT22;45728;48.788;2.302;2022-09-09T01:41:02;16.20;99.90
59847;DHT22;45728;48.788;2.302;2022-09-09T01:43:28;16.20;99.90
59847;DHT22;45728;48.788;2.302;2022-09-09T01:45:55;16.20;99.90
59847;DHT22;45728;48.788;2.302;2022-09-09T01:48:22;16.10;99.90
59847;DHT22;45728;48.788;2.302;2022-09-09T01:50:49;16.10;99.90
59847;DHT22;45728;48.788;2.302;2022-09-09T01:53:15;16.10;99.90
59847;DHT22;45728;48.788;2.302;2022-09-09T01:58:42;16.10;99.90
59847;DHT22;45728;48.788;2.302;2022-09-09T02:03:56;16.10;99.90
59847;DHT22;45728;48.788;2.302;2022-09-09T02:08:57;16.10;99.90
59847;DHT22;45728;48.788;2.302;2022-09-09T02:11:26;16.10;99.90
59847;DHT22;45728;48.788;2.302;2022-09-09T02:13:53;16.10;99.90
59847;DHT22;45728;48.788;2.302;2022-09-09T02:16:27;16.00;99.90
59847;DHT22;45728;48.788;2.302;2022-09-09T02:18:55;16.00;99.90
59847;DHT22;45728;48.788;2.302;2022-09-09T02:21:23;16.00;99.90
59847;DHT22;45728;48.788;2.302;2022-09-09T02:23:49;16.00;99.90
59847;DHT22;45728;48.788;2.302;2022-09-09T02:26:17;16.00;99.90
59847;DHT22;45728;48.788;2.302;2022-09-09T02:28:48;16.00;99.90
59847;DHT22;45728;48.788;2.302;2022-09-09T02:31:14;16.00;99.90
59847;DHT22;45728;48.788;2.302;2022-09-09T02:33:45;16.10;99.90
59847;DHT22;45728;48.788;2.302;2022-09-09T02:36:12;16.10;99.90
59847;DHT22;45728;48.788;2.302;2022-09-09T02:38:43;16.10;99.90
59847;DHT22;45728;48.788;2.302;2022-09-09T02:41:11;16.10;99.90
59847;DHT22;45728;48.788;2.302;2022-09-09T02:43:37;16.10;99.90
59847;DHT22;45728;48.788;2.302;2022-09-09T02:48:51;16.10;99.90
59847;DHT22;45728;48.788;2.302;2022-09-09T02:54:10;16.20;99.90
59847;DHT22;45728;48.788;2.302;2022-09-09T02:56:33;16.20;99.90
59847;DHT22;45728;48.788;2.302;2022-09-09T02:59:04;16.20;99.90
59847;DHT22;45728;48.788;2.302;2022-09-09T03:01:30;16.10;99.90
59847;DHT22;45728;48.788;2.302;2022-09-09T03:03:57;16.20;99.90
59847;DHT22;45728;48.788;2.302;2022-09-09T03:06:23;16.20;99.90
59847;DHT22;45728;48.788;2.302;2022-09-09T03:08:49;16.20;99.90
59847;DHT22;45728;48.788;2.302;2022-09-09T03:11:16;16.10;99.90
59847;DHT22;45728;48.788;2.302;2022-09-09T03:13:42;16.10;99.90
59847;DHT22;45728;48.788;2.302;2022-09-09T03:16:08;16.10;99.90
59847;DHT22;45728;48.788;2.302;2022-09-09T03:18:33;16.10;99.90
59847;DHT22;45728;48.788;2.302;2022-09-09T03:21:00;16.10;99.90
59847;DHT22;45728;48.788;2.302;2022-09-09T03:23:26;16.20;99.90
59847;DHT22;45728;48.788;2.302;2022-09-09T03:25:52;16.20;99.90
59847;DHT22;45728;48.788;2.302;2022-09-09T03:28:20;16.20;99.90
59847;DHT22;45728;48.788;2.302;2022-09-09T03:30:46;16.10;99.90
59847;DHT22;45728;48.788;2.302;2022-09-09T03:33:12;16.10;99.90
59847;DHT22;45728;48.788;2.302;2022-09-09T03:35:38;16.10;99.90
59847;DHT22;45728;48.788;2.302;2022-09-09T03:38:05;16.10;99.90
59847;DHT22;45728;48.788;2.302;2022-09-09T03:40:30;16.10;99.90
59847;DHT22;45728;48.788;2.302;2022-09-09T03:42:56;16.10;99.90
59847;DHT22;45728;48.788;2.302;2022-09-09T03:45:22;16.10;99.90
59847;DHT22;45728;48.788;2.302;2022-09-09T03:47:48;16.10;99.90
59847;DHT22;45728;48.788;2.302;2022-09-09T03:50:14;16.10;99.90
59847;DHT22;45728;48.788;2.302;2022-09-09T03:52:41;16.10;99.90
59847;DHT22;45728;48.788;2.302;2022-09-09T03:55:07;16.00;99.90
59847;DHT22;45728;48.788;2.302;2022-09-09T03:57:34;16.00;99.90
59847;DHT22;45728;48.788;2.302;2022-09-09T04:00:04;16.00;99.90
59847;DHT22;45728;48.788;2.302;2022-09-09T04:02:31;16.00;99.90
59847;DHT22;45728;48.788;2.302;2022-09-09T04:04:57;16.10;99.90
59847;DHT22;45728;48.788;2.302;2022-09-09T04:07:22;16.10;99.90
59847;DHT22;45728;48.788;2.302;2022-09-09T04:09:48;16.10;99.90
59847;DHT22;45728;48.788;2.302;2022-09-09T04:12:16;16.10;99.90
59847;DHT22;45728;48.788;2.302;2022-09-09T04:14:43;16.10;99.90
59847;DHT22;45728;48.788;2.302;2022-09-09T04:17:09;16.10;99.90
59847;DHT22;45728;48.788;2.302;2022-09-09T04:19:35;16.00;99.90
59847;DHT22;45728;48.788;2.302;2022-09-09T04:22:01;16.00;99.90
59847;DHT22;45728;48.788;2.302;2022-09-09T04:24:27;16.00;99.90
59847;DHT22;45728;48.788;2.302;2022-09-09T04:26:54;16.00;99.90
59847;DHT22;45728;48.788;2.302;2022-09-09T04:29:21;15.90;99.90
59847;DHT22;45728;48.788;2.302;2022-09-09T04:31:46;15.90;99.90
59847;DHT22;45728;48.788;2.302;2022-09-09T04:34:12;15.90;99.90
59847;DHT22;45728;48.788;2.302;2022-09-09T04:36:38;15.90;99.90
59847;DHT22;45728;48.788;2.302;2022-09-09T04:39:05;15.90;99.90
59847;DHT22;45728;48.788;2.302;2022-09-09T04:41:31;15.90;99.90
59847;DHT22;45728;48.788;2.302;2022-09-09T04:43:57;15.80;99.90
59847;DHT22;45728;48.788;2.302;2022-09-09T04:46:23;15.80;99.90
59847;DHT22;45728;48.788;2.302;2022-09-09T04:48:49;15.80;99.90
59847;DHT22;45728;48.788;2.302;2022-09-09T04:51:15;15.80;99.90
59847;DHT22;45728;48.788;2.302;2022-09-09T04:53:41;15.80;99.90
59847;DHT22;45728;48.788;2.302;2022-09-09T04:56:08;15.80;99.90
59847;DHT22;45728;48.788;2.302;2022-09-09T04:58:36;15.80;99.90
59847;DHT22;45728;48.788;2.302;2022-09-09T05:01:02;15.70;99.90
59847;DHT22;45728;48.788;2.302;2022-09-09T05:03:28;15.70;99.90
59847;DHT22;45728;48.788;2.302;2022-09-09T05:05:54;15.70;99.90
59847;DHT22;45728;48.788;2.302;2022-09-09T05:08:27;15.60;99.90
59847;DHT22;45728;48.788;2.302;2022-09-09T05:10:53;15.60;99.90
59847;DHT22;45728;48.788;2.302;2022-09-09T05:13:19;15.60;99.90
59847;DHT22;45728;48.788;2.302;2022-09-09T05:15:51;15.60;99.90
59847;DHT22;45728;48.788;2.302;2022-09-09T05:18:17;15.60;99.90
59847;DHT22;45728;48.788;2.302;2022-09-09T05:20:43;15.60;99.90
59847;DHT22;45728;48.788;2.302;2022-09-09T05:23:09;15.60;99.90
59847;DHT22;45728;48.788;2.302;2022-09-09T05:25:36;15.50;99.90
59847;DHT22;45728;48.788;2.302;2022-09-09T05:28:02;15.60;99.90
59847;DHT22;45728;48.788;2.302;2022-09-09T05:30:28;15.60;99.90
59847;DHT22;45728;48.788;2.302;2022-09-09T05:32:57;15.60;99.90
59847;DHT22;45728;48.788;2.302;2022-09-09T05:35:23;15.60;99.90
59847;DHT22;45728;48.788;2.302;2022-09-09T05:37:49;15.60;99.90
59847;DHT22;45728;48.788;2.302;2022-09-09T05:40:14;15.70;99.90
59847;DHT22;45728;48.788;2.302;2022-09-09T05:42:40;15.70;99.90
59847;DHT22;45728;48.788;2.302;2022-09-09T05:45:07;15.70;99.90
59847;DHT22;45728;48.788;2.302;2022-09-09T05:47:34;15.70;99.90
59847;DHT22;45728;48.788;2.302;2022-09-09T05:50:01;15.70;99.90
59847;DHT22;45728;48.788;2.302;2022-09-09T05:52:27;15.70;99.90
59847;DHT22;45728;48.788;2.302;2022-09-09T05:54:53;15.80;99.90
59847;DHT22;45728;48.788;2.302;2022-09-09T05:57:20;15.80;99.90
59847;DHT22;45728;48.788;2.302;2022-09-09T05:59:46;15.90;99.90
59847;DHT22;45728;48.788;2.302;2022-09-09T06:02:12;15.90;99.90
59847;DHT22;45728;48.788;2.302;2022-09-09T06:04:38;15.90;99.90
59847;DHT22;45728;48.788;2.302;2022-09-09T06:07:04;15.90;99.90
59847;DHT22;45728;48.788;2.302;2022-09-09T06:09:31;16.00;99.90
59847;DHT22;45728;48.788;2.302;2022-09-09T06:11:57;16.00;99.90
59847;DHT22;45728;48.788;2.302;2022-09-09T06:14:23;16.00;99.90
59847;DHT22;45728;48.788;2.302;2022-09-09T06:16:51;16.10;99.90
59847;DHT22;45728;48.788;2.302;2022-09-09T06:19:17;16.10;99.90
59847;DHT22;45728;48.788;2.302;2022-09-09T06:21:43;16.10;99.90
59847;DHT22;45728;48.788;2.302;2022-09-09T06:24:10;16.20;99.90
59847;DHT22;45728;48.788;2.302;2022-09-09T06:26:37;16.30;99.90
59847;DHT22;45728;48.788;2.302;2022-09-09T06:29:04;16.30;99.90
59847;DHT22;45728;48.788;2.302;2022-09-09T06:31:31;16.40;99.90
59847;DHT22;45728;48.788;2.302;2022-09-09T06:34:00;16.50;99.90
59847;DHT22;45728;48.788;2.302;2022-09-09T06:36:27;16.50;99.90
59847;DHT22;45728;48.788;2.302;2022-09-09T06:38:54;16.50;99.90
59847;DHT22;45728;48.788;2.302;2022-09-09T06:41:21;16.60;99.90
59847;DHT22;45728;48.788;2.302;2022-09-09T06:43:47;16.60;99.90
59847;DHT22;45728;48.788;2.302;2022-09-09T06:46:14;16.60;99.90
59847;DHT22;45728;48.788;2.302;2022-09-09T06:48:41;16.70;99.90
59847;DHT22;45728;48.788;2.302;2022-09-09T06:51:08;16.70;99.90
59847;DHT22;45728;48.788;2.302;2022-09-09T06:53:37;16.80;99.90
59847;DHT22;45728;48.788;2.302;2022-09-09T06:58:41;16.80;99.90
59847;DHT22;45728;48.788;2.302;2022-09-09T07:01:10;16.80;99.90
59847;DHT22;45728;48.788;2.302;2022-09-09T07:03:38;16.90;99.90
59847;DHT22;45728;48.788;2.302;2022-09-09T07:06:04;16.90;99.90
59847;DHT22;45728;48.788;2.302;2022-09-09T07:08:30;16.90;99.90
59847;DHT22;45728;48.788;2.302;2022-09-09T07:11:03;17.00;99.90
59847;DHT22;45728;48.788;2.302;2022-09-09T07:13:32;17.10;99.90
59847;DHT22;45728;48.788;2.302;2022-09-09T07:16:05;17.20;99.90
59847;DHT22;45728;48.788;2.302;2022-09-09T07:18:31;17.20;99.90
59847;DHT22;45728;48.788;2.302;2022-09-09T07:20:58;17.20;99.90
59847;DHT22;45728;48.788;2.302;2022-09-09T07:23:24;17.20;99.90
59847;DHT22;45728;48.788;2.302;2022-09-09T07:25:51;17.20;99.90
59847;DHT22;45728;48.788;2.302;2022-09-09T07:28:19;17.30;99.90
59847;DHT22;45728;48.788;2.302;2022-09-09T07:30:57;17.30;99.90
59847;DHT22;45728;48.788;2.302;2022-09-09T07:33:24;17.40;99.90
59847;DHT22;45728;48.788;2.302;2022-09-09T07:35:50;17.40;99.90
59847;DHT22;45728;48.788;2.302;2022-09-09T07:38:16;17.50;99.90
59847;DHT22;45728;48.788;2.302;2022-09-09T07:40:42;17.70;99.90
59847;DHT22;45728;48.788;2.302;2022-09-09T07:43:09;17.70;99.90
59847;DHT22;45728;48.788;2.302;2022-09-09T07:45:35;17.60;99.90
59847;DHT22;45728;48.788;2.302;2022-09-09T07:48:01;17.60;99.90
59847;DHT22;45728;48.788;2.302;2022-09-09T07:50:27;17.50;99.90
59847;DHT22;45728;48.788;2.302;2022-09-09T07:52:53;17.50;99.90
59847;DHT22;45728;48.788;2.302;2022-09-09T07:55:22;17.50;99.90
59847;DHT22;45728;48.788;2.302;2022-09-09T07:57:52;17.40;99.90
59847;DHT22;45728;48.788;2.302;2022-09-09T08:00:18;17.40;99.90
59847;DHT22;45728;48.788;2.302;2022-09-09T08:02:45;17.50;99.90
59847;DHT22;45728;48.788;2.302;2022-09-09T08:05:12;17.60;99.90
59847;DHT22;45728;48.788;2.302;2022-09-09T08:07:38;17.70;99.90
59847;DHT22;45728;48.788;2.302;2022-09-09T08:10:04;17.70;99.90
59847;DHT22;45728;48.788;2.302;2022-09-09T08:12:30;17.60;99.90
59847;DHT22;45728;48.788;2.302;2022-09-09T08:14:56;17.60;99.90
59847;DHT22;45728;48.788;2.302;2022-09-09T08:17:22;17.60;99.90
59847;DHT22;45728;48.788;2.302;2022-09-09T08:19:47;17.60;99.90
59847;DHT22;45728;48.788;2.302;2022-09-09T08:22:13;17.60;99.90
59847;DHT22;45728;48.788;2.302;2022-09-09T08:24:39;17.60;99.90
59847;DHT22;45728;48.788;2.302;2022-09-09T08:27:06;17.70;99.90
59847;DHT22;45728;48.788;2.302;2022-09-09T08:29:32;17.70;99.90
59847;DHT22;45728;48.788;2.302;2022-09-09T08:31:58;17.70;99.90
59847;DHT22;45728;48.788;2.302;2022-09-09T08:34:25;17.80;99.90
59847;DHT22;45728;48.788;2.302;2022-09-09T08:36:52;17.70;99.90
59847;DHT22;45728;48.788;2.302;2022-09-09T08:39:19;17.80;99.90
59847;DHT22;45728;48.788;2.302;2022-09-09T08:47:02;18.20;99.90
59847;DHT22;45728;48.788;2.302;2022-09-09T08:51:57;18.20;99.90
59847;DHT22;45728;48.788;2.302;2022-09-09T08:54:23;18.20;99.90
59847;DHT22;45728;48.788;2.302;2022-09-09T08:56:53;18.30;99.90
59847;DHT22;45728;48.788;2.302;2022-09-09T08:59:19;18.30;99.90
59847;DHT22;45728;48.788;2.302;2022-09-09T09:07:18;18.20;99.90
59847;DHT22;45728;48.788;2.302;2022-09-09T09:09:54;18.40;99.90
59847;DHT22;45728;48.788;2.302;2022-09-09T09:12:25;18.60;99.90
59847;DHT22;45728;48.788;2.302;2022-09-09T09:14:52;18.50;99.90
59847;DHT22;45728;48.788;2.302;2022-09-09T09:17:21;18.60;99.90
59847;DHT22;45728;48.788;2.302;2022-09-09T09:19:49;18.70;99.90
59847;DHT22;45728;48.788;2.302;2022-09-09T09:22:32;18.70;99.90
59847;DHT22;45728;48.788;2.302;2022-09-09T09:27:40;18.80;99.90
59847;DHT22;45728;48.788;2.302;2022-09-09T09:30:13;18.90;99.90
59847;DHT22;45728;48.788;2.302;2022-09-09T09:32:40;19.10;99.90
59847;DHT22;45728;48.788;2.302;2022-09-09T09:35:10;19.10;99.90
59847;DHT22;45728;48.788;2.302;2022-09-09T09:37:37;19.00;99.90
59847;DHT22;45728;48.788;2.302;2022-09-09T09:40:13;18.90;99.90
59847;DHT22;45728;48.788;2.302;2022-09-09T09:42:49;19.00;99.90
59847;DHT22;45728;48.788;2.302;2022-09-09T09:45:20;19.10;99.90
59847;DHT22;45728;48.788;2.302;2022-09-09T09:47:57;19.20;99.90
59847;DHT22;45728;48.788;2.302;2022-09-09T09:50:23;19.10;99.90
59847;DHT22;45728;48.788;2.302;2022-09-09T09:53:04;19.00;99.90
59847;DHT22;45728;48.788;2.302;2022-09-09T09:55:32;19.00;99.90
59847;DHT22;45728;48.788;2.302;2022-09-09T09:58:02;19.10;99.90
59847;DHT22;45728;48.788;2.302;2022-09-09T10:00:29;19.60;99.90
59847;DHT22;45728;48.788;2.302;2022-09-09T10:02:55;19.90;99.90
59847;DHT22;45728;48.788;2.302;2022-09-09T10:05:22;20.00;99.90
59847;DHT22;45728;48.788;2.302;2022-09-09T10:13:36;19.60;99.90
59847;DHT22;45728;48.788;2.302;2022-09-09T10:26:16;19.60;99.90
59847;DHT22;45728;48.788;2.302;2022-09-09T10:31:31;19.60;99.90
59847;DHT22;45728;48.788;2.302;2022-09-09T10:34:12;19.70;99.90
59847;DHT22;45728;48.788;2.302;2022-09-09T10:36:44;19.60;99.90
59847;DHT22;45728;48.788;2.302;2022-09-09T10:39:33;19.50;99.90
59847;DHT22;45728;48.788;2.302;2022-09-09T10:47:00;19.40;99.90
59847;DHT22;45728;48.788;2.302;2022-09-09T10:49:46;19.60;99.90
59847;DHT22;45728;48.788;2.302;2022-09-09T10:55:00;19.60;99.90
59847;DHT22;45728;48.788;2.302;2022-09-09T10:57:36;19.80;99.90
59847;DHT22;45728;48.788;2.302;2022-09-09T11:00:06;19.80;99.90
59847;DHT22;45728;48.788;2.302;2022-09-09T11:02:33;19.90;99.90
59847;DHT22;45728;48.788;2.302;2022-09-09T11:05:10;19.80;99.90
59847;DHT22;45728;48.788;2.302;2022-09-09T11:10:26;19.60;99.90
59847;DHT22;45728;48.788;2.302;2022-09-09T11:12:57;19.70;99.90
59847;DHT22;45728;48.788;2.302;2022-09-09T11:15:41;19.80;99.90
59847;DHT22;45728;48.788;2.302;2022-09-09T11:18:13;19.90;99.90
59847;DHT22;45728;48.788;2.302;2022-09-09T11:20:42;19.90;99.90
59847;DHT22;45728;48.788;2.302;2022-09-09T11:23:11;20.00;99.90
59847;DHT22;45728;48.788;2.302;2022-09-09T11:25:42;20.10;99.90
59847;DHT22;45728;48.788;2.302;2022-09-09T11:30:45;20.00;99.90
59847;DHT22;45728;48.788;2.302;2022-09-09T11:33:19;20.30;99.90
59847;DHT22;45728;48.788;2.302;2022-09-09T11:38:27;21.00;99.90
59847;DHT22;45728;48.788;2.302;2022-09-09T11:40:58;21.50;99.90
59847;DHT22;45728;48.788;2.302;2022-09-09T11:43:29;21.30;99.90
59847;DHT22;45728;48.788;2.302;2022-09-09T11:45:57;20.60;99.90
59847;DHT22;45728;48.788;2.302;2022-09-09T11:51:00;20.50;99.90
59847;DHT22;45728;48.788;2.302;2022-09-09T11:53:26;20.70;99.90
59847;DHT22;45728;48.788;2.302;2022-09-09T11:55:59;20.70;99.90
59847;DHT22;45728;48.788;2.302;2022-09-09T11:58:26;20.60;99.90
59847;DHT22;45728;48.788;2.302;2022-09-09T12:00:53;20.40;99.90
59847;DHT22;45728;48.788;2.302;2022-09-09T12:03:36;20.40;99.90
59847;DHT22;45728;48.788;2.302;2022-09-09T12:06:11;20.50;99.90
59847;DHT22;45728;48.788;2.302;2022-09-09T12:08:40;20.30;99.90
59847;DHT22;45728;48.788;2.302;2022-09-09T12:11:06;20.10;99.90
59847;DHT22;45728;48.788;2.302;2022-09-09T12:13:32;20.20;99.90
59847;DHT22;45728;48.788;2.302;2022-09-09T12:15:59;20.10;99.90
59847;DHT22;45728;48.788;2.302;2022-09-09T12:18:34;20.10;99.90
59847;DHT22;45728;48.788;2.302;2022-09-09T12:23:40;20.00;99.90
59847;DHT22;45728;48.788;2.302;2022-09-09T12:26:22;19.90;99.90
59847;DHT22;45728;48.788;2.302;2022-09-09T12:33:50;19.70;99.90
59847;DHT22;45728;48.788;2.302;2022-09-09T12:36:19;19.70;99.90
59847;DHT22;45728;48.788;2.302;2022-09-09T12:38:46;19.70;99.90
59847;DHT22;45728;48.788;2.302;2022-09-09T12:41:22;19.70;99.90
59847;DHT22;45728;48.788;2.302;2022-09-09T12:43:48;19.60;99.90
59847;DHT22;45728;48.788;2.302;2022-09-09T12:46:31;19.50;99.90
59847;DHT22;45728;48.788;2.302;2022-09-09T12:49:02;19.50;99.90
59847;DHT22;45728;48.788;2.302;2022-09-09T12:51:30;19.40;99.90
59847;DHT22;45728;48.788;2.302;2022-09-09T12:53:57;19.30;99.90
59847;DHT22;45728;48.788;2.302;2022-09-09T12:56:24;19.30;99.90
59847;DHT22;45728;48.788;2.302;2022-09-09T12:58:52;19.30;99.90
59847;DHT22;45728;48.788;2.302;2022-09-09T13:01:23;19.10;99.90
59847;DHT22;45728;48.788;2.302;2022-09-09T13:03:49;18.80;99.90
59847;DHT22;45728;48.788;2.302;2022-09-09T13:06:29;18.80;99.90
59847;DHT22;45728;48.788;2.302;2022-09-09T13:08:56;18.80;99.90
59847;DHT22;45728;48.788;2.302;2022-09-09T13:11:26;18.70;99.90
59847;DHT22;45728;48.788;2.302;2022-09-09T13:13:54;18.60;99.90
59847;DHT22;45728;48.788;2.302;2022-09-09T13:16:31;18.20;99.90
59847;DHT22;45728;48.788;2.302;2022-09-09T13:18:58;18.10;99.90
59847;DHT22;45728;48.788;2.302;2022-09-09T13:21:31;18.00;99.90
59847;DHT22;45728;48.788;2.302;2022-09-09T13:23:57;17.90;99.90
59847;DHT22;45728;48.788;2.302;2022-09-09T13:26:25;17.70;99.90
59847;DHT22;45728;48.788;2.302;2022-09-09T13:28:54;17.70;99.90
59847;DHT22;45728;48.788;2.302;2022-09-09T13:31:28;17.70;99.90
59847;DHT22;45728;48.788;2.302;2022-09-09T13:33:54;17.50;99.90
59847;DHT22;45728;48.788;2.302;2022-09-09T13:36:30;17.50;99.90
59847;DHT22;45728;48.788;2.302;2022-09-09T13:38:57;17.50;99.90
59847;DHT22;45728;48.788;2.302;2022-09-09T13:41:35;17.40;99.90
59847;DHT22;45728;48.788;2.302;2022-09-09T13:44:02;17.50;99.90
59847;DHT22;45728;48.788;2.302;2022-09-09T13:46:35;17.50;99.90
59847;DHT22;45728;48.788;2.302;2022-09-09T13:49:03;17.60;99.90
59847;DHT22;45728;48.788;2.302;2022-09-09T13:51:45;17.70;99.90
59847;DHT22;45728;48.788;2.302;2022-09-09T13:54:13;17.70;99.90
59847;DHT22;45728;48.788;2.302;2022-09-09T13:56:40;17.80;99.90
59847;DHT22;45728;48.788;2.302;2022-09-09T13:59:17;17.90;99.90
59847;DHT22;45728;48.788;2.302;2022-09-09T14:01:47;17.90;99.90
59847;DHT22;45728;48.788;2.302;2022-09-09T14:04:14;17.80;99.90
59847;DHT22;45728;48.788;2.302;2022-09-09T14:06:41;17.80;99.90
59847;DHT22;45728;48.788;2.302;2022-09-09T14:09:09;17.80;99.90
59847;DHT22;45728;48.788;2.302;2022-09-09T14:11:36;17.90;99.90
59847;DHT22;45728;48.788;2.302;2022-09-09T14:14:02;18.10;99.90
59847;DHT22;45728;48.788;2.302;2022-09-09T14:16:28;18.20;99.90
59847;DHT22;45728;48.788;2.302;2022-09-09T14:18:54;18.40;99.90
59847;DHT22;45728;48.788;2.302;2022-09-09T14:21:23;18.30;99.90
59847;DHT22;45728;48.788;2.302;2022-09-09T14:23:49;18.40;99.90
59847;DHT22;45728;48.788;2.302;2022-09-09T14:26:15;18.40;99.90
59847;DHT22;45728;48.788;2.302;2022-09-09T14:28:41;18.40;99.90
59847;DHT22;45728;48.788;2.302;2022-09-09T14:31:07;18.50;99.90
59847;DHT22;45728;48.788;2.302;2022-09-09T14:33:33;18.50;99.90
59847;DHT22;45728;48.788;2.302;2022-09-09T14:36:00;18.60;99.90
59847;DHT22;45728;48.788;2.302;2022-09-09T14:38:29;18.60;99.90
59847;DHT22;45728;48.788;2.302;2022-09-09T14:40:56;18.50;99.90
59847;DHT22;45728;48.788;2.302;2022-09-09T14:43:22;18.50;99.90
59847;DHT22;45728;48.788;2.302;2022-09-09T14:45:48;18.60;99.90
59847;DHT22;45728;48.788;2.302;2022-09-09T14:48:15;18.50;99.90
59847;DHT22;45728;48.788;2.302;2022-09-09T14:50:41;18.60;99.90
59847;DHT22;45728;48.788;2.302;2022-09-09T14:53:07;18.70;99.90
59847;DHT22;45728;48.788;2.302;2022-09-09T14:55:34;18.60;99.90
59847;DHT22;45728;48.788;2.302;2022-09-09T14:58:00;18.60;99.90
59847;DHT22;45728;48.788;2.302;2022-09-09T15:00:26;18.60;99.90
59847;DHT22;45728;48.788;2.302;2022-09-09T15:02:52;18.60;99.90
59847;DHT22;45728;48.788;2.302;2022-09-09T15:05:18;18.60;99.90
59847;DHT22;45728;48.788;2.302;2022-09-09T15:07:45;18.60;99.90
59847;DHT22;45728;48.788;2.302;2022-09-09T15:10:11;18.60;99.90
59847;DHT22;45728;48.788;2.302;2022-09-09T15:12:36;18.80;99.90
59847;DHT22;45728;48.788;2.302;2022-09-09T15:15:04;19.00;99.90
59847;DHT22;45728;48.788;2.302;2022-09-09T15:17:30;19.00;99.90
59847;DHT22;45728;48.788;2.302;2022-09-09T15:19:56;18.90;99.90
59847;DHT22;45728;48.788;2.302;2022-09-09T15:22:23;18.90;99.90
59847;DHT22;45728;48.788;2.302;2022-09-09T15:24:50;18.70;99.90
59847;DHT22;45728;48.788;2.302;2022-09-09T15:27:15;18.70;99.90
59847;DHT22;45728;48.788;2.302;2022-09-09T15:29:41;18.80;99.90
59847;DHT22;45728;48.788;2.302;2022-09-09T15:32:07;18.80;99.90
59847;DHT22;45728;48.788;2.302;2022-09-09T15:34:33;18.80;99.90
59847;DHT22;45728;48.788;2.302;2022-09-09T15:36:59;18.60;99.90
59847;DHT22;45728;48.788;2.302;2022-09-09T15:39:25;18.60;99.90
59847;DHT22;45728;48.788;2.302;2022-09-09T15:41:51;18.60;99.90
59847;DHT22;45728;48.788;2.302;2022-09-09T15:44:17;18.60;99.90
59847;DHT22;45728;48.788;2.302;2022-09-09T15:46:46;18.60;99.90
59847;DHT22;45728;48.788;2.302;2022-09-09T15:49:13;18.50;99.90
59847;DHT22;45728;48.788;2.302;2022-09-09T15:51:42;18.60;99.90
59847;DHT22;45728;48.788;2.302;2022-09-09T15:54:12;18.60;99.90
59847;DHT22;45728;48.788;2.302;2022-09-09T15:56:39;18.60;99.90
59847;DHT22;45728;48.788;2.302;2022-09-09T15:59:05;18.60;99.90
59847;DHT22;45728;48.788;2.302;2022-09-09T16:01:31;18.60;99.90
59847;DHT22;45728;48.788;2.302;2022-09-09T16:03:57;18.60;99.90
59847;DHT22;45728;48.788;2.302;2022-09-09T16:06:24;18.70;99.90
59847;DHT22;45728;48.788;2.302;2022-09-09T16:08:51;18.50;99.90
59847;DHT22;45728;48.788;2.302;2022-09-09T16:11:21;18.60;99.90
59847;DHT22;45728;48.788;2.302;2022-09-09T16:13:48;18.60;99.90
59847;DHT22;45728;48.788;2.302;2022-09-09T16:16:14;18.60;99.90
59847;DHT22;45728;48.788;2.302;2022-09-09T16:18:45;18.50;99.90
59847;DHT22;45728;48.788;2.302;2022-09-09T16:21:13;18.60;99.90
59847;DHT22;45728;48.788;2.302;2022-09-09T16:23:39;18.60;99.90
59847;DHT22;45728;48.788;2.302;2022-09-09T16:26:05;18.70;99.90
59847;DHT22;45728;48.788;2.302;2022-09-09T16:28:31;18.50;99.90
59847;DHT22;45728;48.788;2.302;2022-09-09T16:30:57;18.60;99.90
59847;DHT22;45728;48.788;2.302;2022-09-09T16:33:23;18.60;99.90
59847;DHT22;45728;48.788;2.302;2022-09-09T16:35:49;18.50;99.90
59847;DHT22;45728;48.788;2.302;2022-09-09T16:38:15;18.50;99.90
59847;DHT22;45728;48.788;2.302;2022-09-09T16:40:42;18.50;99.90
59847;DHT22;45728;48.788;2.302;2022-09-09T16:43:08;18.60;99.90
59847;DHT22;45728;48.788;2.302;2022-09-09T16:45:43;18.60;99.90
59847;DHT22;45728;48.788;2.302;2022-09-09T16:48:09;18.40;99.90
59847;DHT22;45728;48.788;2.302;2022-09-09T16:50:35;18.60;99.90
59847;DHT22;45728;48.788;2.302;2022-09-09T16:53:01;18.50;99.90
59847;DHT22;45728;48.788;2.302;2022-09-09T16:55:31;18.50;99.90
59847;DHT22;45728;48.788;2.302;2022-09-09T16:57:57;18.40;99.90
59847;DHT22;45728;48.788;2.302;2022-09-09T17:00:23;18.40;99.90
59847;DHT22;45728;48.788;2.302;2022-09-09T17:02:49;18.40;99.90
59847;DHT22;45728;48.788;2.302;2022-09-09T17:05:15;18.30;99.90
59847;DHT22;45728;48.788;2.302;2022-09-09T17:07:41;18.20;99.90
59847;DHT22;45728;48.788;2.302;2022-09-09T17:10:09;18.20;99.90
59847;DHT22;45728;48.788;2.302;2022-09-09T17:12:35;18.30;99.90
59847;DHT22;45728;48.788;2.302;2022-09-09T17:15:01;18.30;99.90
59847;DHT22;45728;48.788;2.302;2022-09-09T17:17:28;18.20;99.90